createdAt,value
2022-12-23T00:00:57.413Z,11.93
2022-12-23T00:01:57.537Z,11.80
2022-12-23T00:02:57.537Z,11.95
2022-12-23T00:03:57.489Z,11.93
2022-12-23T00:04:57.290Z,11.97
2022-12-23T00:05:57.290Z,11.97
2022-12-23T00:06:57.280Z,11.93
2022-12-23T00:07:57.222Z,11.91
2022-12-23T00:08:57.208Z,11.85
2022-12-23T00:09:57.181Z,11.96
2022-12-23T00:10:57.174Z,11.93
2022-12-23T00:11:57.149Z,11.85
2022-12-23T00:12:57.121Z,11.84
2022-12-23T00:13:57.114Z,11.91
2022-12-23T00:14:57.079Z,11.95
2022-12-23T00:15:57.094Z,12.00
2022-12-23T00:16:57.127Z,11.93
2022-12-23T00:17:57.020Z,11.91
2022-12-23T00:18:56.999Z,11.97
2022-12-23T00:19:56.970Z,11.96
2022-12-23T00:20:56.957Z,11.93
2022-12-23T00:21:56.953Z,11.93
2022-12-23T00:22:56.920Z,11.97
2022-12-23T00:23:56.897Z,11.97
2022-12-23T00:24:56.890Z,11.97
2022-12-23T00:25:56.853Z,11.97
2022-12-23T00:26:56.824Z,11.97
2022-12-23T00:27:56.811Z,11.95
2022-12-23T00:28:56.782Z,11.97
2022-12-23T00:29:56.770Z,11.91
2022-12-23T00:30:56.735Z,11.96
2022-12-23T00:31:56.790Z,11.96
2022-12-23T00:32:56.699Z,11.96
2022-12-23T00:33:56.690Z,11.99
2022-12-23T00:34:56.660Z,11.96
2022-12-23T00:35:56.727Z,11.88
2022-12-23T00:36:56.635Z,11.91
2022-12-23T00:37:56.617Z,11.87
2022-12-23T00:38:56.576Z,11.88
2022-12-23T00:40:01.106Z,11.80
2022-12-23T00:40:56.541Z,11.87
2022-12-23T00:41:56.508Z,11.95
2022-12-23T00:42:56.486Z,11.88
2022-12-23T00:43:56.470Z,11.89
2022-12-23T00:44:56.491Z,11.88
2022-12-23T00:45:56.478Z,11.87
2022-12-23T00:46:56.399Z,11.89
2022-12-23T00:47:56.382Z,11.91
2022-12-23T00:48:56.359Z,11.95
2022-12-23T00:49:56.336Z,11.88
2022-12-23T00:50:56.323Z,11.88
2022-12-23T00:51:56.302Z,11.80
2022-12-23T00:52:56.289Z,11.88
2022-12-23T00:53:56.273Z,11.89
2022-12-23T00:54:56.231Z,11.88
2022-12-23T00:55:56.217Z,11.88
2022-12-23T00:56:56.203Z,11.88
2022-12-23T00:57:56.179Z,11.85
2022-12-23T00:58:56.146Z,11.93
2022-12-23T00:59:56.125Z,11.84
2022-12-23T01:00:56.163Z,11.91
2022-12-23T01:01:56.389Z,11.88
2022-12-23T01:02:56.261Z,11.89
2022-12-23T01:03:56.038Z,11.88
2022-12-23T01:04:56.019Z,11.87
2022-12-23T01:05:55.999Z,11.74
2022-12-23T01:06:55.975Z,11.82
2022-12-23T01:07:55.952Z,11.88
2022-12-23T01:08:55.934Z,11.84
2022-12-23T01:09:55.933Z,11.95
2022-12-23T01:10:55.893Z,11.88
2022-12-23T01:11:55.879Z,11.84
2022-12-23T01:12:55.851Z,11.85
2022-12-23T01:13:55.831Z,11.95
2022-12-23T01:14:55.810Z,11.82
2022-12-23T01:15:55.785Z,11.91
2022-12-23T01:16:55.941Z,11.88
2022-12-23T01:17:55.744Z,11.88
2022-12-23T01:18:55.724Z,11.89
2022-12-23T01:19:55.696Z,11.91
2022-12-23T01:20:55.687Z,11.87
2022-12-23T01:21:55.659Z,11.91
2022-12-23T01:22:55.641Z,11.84
2022-12-23T01:23:55.625Z,11.80
2022-12-23T01:24:55.596Z,11.80
2022-12-23T01:25:55.587Z,11.82
2022-12-23T01:26:55.555Z,11.85
2022-12-23T01:27:55.523Z,11.87
2022-12-23T01:28:55.524Z,11.85
2022-12-23T01:29:55.486Z,11.87
2022-12-23T01:30:55.477Z,11.85
2022-12-23T01:31:55.548Z,11.89
2022-12-23T01:32:55.428Z,11.91
2022-12-23T01:33:55.416Z,11.88
2022-12-23T01:34:55.389Z,11.87
2022-12-23T01:35:55.363Z,11.74
2022-12-23T01:36:55.346Z,11.85
2022-12-23T01:37:55.322Z,11.89
2022-12-23T01:38:55.302Z,11.84
2022-12-23T01:39:55.282Z,11.89
2022-12-23T01:40:55.263Z,11.87
2022-12-23T01:41:55.375Z,11.88
2022-12-23T01:42:55.215Z,11.88
2022-12-23T01:43:55.188Z,11.89
2022-12-23T01:44:55.188Z,11.93
2022-12-23T01:45:55.177Z,11.88
2022-12-23T01:46:55.135Z,11.88
2022-12-23T01:47:55.109Z,11.88
2022-12-23T01:48:55.085Z,11.89
2022-12-23T01:49:55.063Z,11.84
2022-12-23T01:50:55.045Z,11.87
2022-12-23T01:51:55.023Z,11.85
2022-12-23T01:52:55.002Z,11.87
2022-12-23T01:53:54.982Z,11.89
2022-12-23T01:54:54.961Z,11.82
2022-12-23T01:55:54.936Z,11.85
2022-12-23T01:56:54.918Z,11.88
2022-12-23T01:57:54.926Z,11.87
2022-12-23T01:58:54.874Z,11.89
2022-12-23T01:59:54.873Z,11.87
2022-12-23T02:00:54.904Z,11.88
2022-12-23T02:01:54.922Z,11.93
2022-12-23T02:02:54.891Z,11.87
2022-12-23T02:03:54.768Z,11.87
2022-12-23T02:04:54.784Z,11.89
2022-12-23T02:05:54.727Z,11.88
2022-12-23T02:06:54.710Z,11.85
2022-12-23T02:07:54.683Z,11.87
2022-12-23T02:08:54.666Z,11.89
2022-12-23T02:09:54.637Z,11.88
2022-12-23T02:10:54.621Z,11.84
2022-12-23T02:11:54.598Z,11.91
2022-12-23T02:12:54.585Z,11.89
2022-12-23T02:13:54.583Z,11.85
2022-12-23T02:14:54.543Z,11.88
2022-12-23T02:15:54.511Z,11.87
2022-12-23T02:16:54.556Z,11.87
2022-12-23T02:17:54.473Z,11.91
2022-12-23T02:18:54.481Z,11.85
2022-12-23T02:19:54.428Z,11.85
2022-12-23T02:20:54.407Z,11.95
2022-12-23T02:21:54.389Z,11.82
2022-12-23T02:22:54.367Z,11.88
2022-12-23T02:23:54.346Z,11.95
2022-12-23T02:24:54.327Z,11.87
2022-12-23T02:25:54.299Z,11.84
2022-12-23T02:26:54.290Z,11.91
2022-12-23T02:27:54.255Z,11.80
2022-12-23T02:28:54.238Z,11.95
2022-12-23T02:29:54.234Z,11.95
2022-12-23T02:30:54.231Z,11.96
2022-12-23T02:31:54.172Z,11.96
2022-12-23T02:32:54.160Z,11.93
2022-12-23T02:33:54.132Z,11.97
2022-12-23T02:34:54.115Z,11.97
2022-12-23T02:35:54.089Z,11.93
2022-12-23T02:36:54.072Z,11.96
2022-12-23T02:37:54.048Z,11.99
2022-12-23T02:38:54.028Z,11.97
2022-12-23T02:39:54.035Z,11.96
2022-12-23T02:40:53.986Z,11.84
2022-12-23T02:41:53.970Z,11.85
2022-12-23T02:42:53.951Z,11.85
2022-12-23T02:43:53.920Z,11.88
2022-12-23T02:44:53.923Z,11.87
2022-12-23T02:45:54.008Z,11.89
2022-12-23T02:46:53.862Z,11.87
2022-12-23T02:47:53.833Z,11.85
2022-12-23T02:48:53.821Z,11.87
2022-12-23T02:49:53.799Z,11.82
2022-12-23T02:50:53.779Z,11.88
2022-12-23T02:51:53.760Z,11.97
2022-12-23T02:52:53.742Z,11.96
2022-12-23T02:53:53.714Z,11.96
2022-12-23T02:54:53.697Z,11.95
2022-12-23T02:55:53.667Z,11.95
2022-12-23T02:56:53.649Z,11.93
2022-12-23T02:57:53.627Z,11.97
2022-12-23T02:58:53.613Z,11.97
2022-12-23T02:59:53.582Z,11.97
2022-12-23T03:00:53.561Z,12.03
2022-12-23T03:01:53.641Z,11.97
2022-12-23T03:02:53.657Z,11.95
2022-12-23T03:03:53.632Z,12.13
2022-12-23T03:04:53.475Z,12.28
2022-12-23T03:05:53.475Z,12.28
2022-12-23T03:06:53.452Z,12.21
2022-12-23T03:07:53.423Z,12.05
2022-12-23T03:08:53.400Z,12.10
2022-12-23T03:09:53.380Z,12.08
2022-12-23T03:10:53.359Z,12.13
2022-12-23T03:11:53.335Z,12.07
2022-12-23T03:12:53.309Z,11.96
2022-12-23T03:13:53.296Z,11.97
2022-12-23T03:14:53.271Z,12.11
2022-12-23T03:15:53.301Z,11.99
2022-12-23T03:16:53.228Z,12.05
2022-12-23T03:17:53.241Z,12.04
2022-12-23T03:18:53.190Z,12.05
2022-12-23T03:19:53.165Z,12.00
2022-12-23T03:20:53.163Z,12.03
2022-12-23T03:21:53.124Z,12.00
2022-12-23T03:22:53.104Z,12.00
2022-12-23T03:23:55.814Z,12.04
2022-12-23T03:24:53.057Z,12.04
2022-12-23T03:25:53.040Z,12.05
2022-12-23T03:26:53.026Z,11.99
2022-12-23T03:27:52.995Z,11.97
2022-12-23T03:28:52.976Z,12.08
2022-12-23T03:29:52.951Z,12.04
2022-12-23T03:30:52.957Z,12.14
2022-12-23T03:31:52.908Z,11.99
2022-12-23T03:32:52.896Z,12.07
2022-12-23T03:33:52.889Z,12.11
2022-12-23T03:34:52.866Z,12.14
2022-12-23T03:35:52.826Z,12.08
2022-12-23T03:36:52.810Z,12.08
2022-12-23T03:37:52.784Z,12.08
2022-12-23T03:38:52.783Z,12.10
2022-12-23T03:39:52.768Z,12.08
2022-12-23T03:40:52.741Z,12.08
2022-12-23T03:41:52.699Z,12.13
2022-12-23T03:42:52.686Z,12.18
2022-12-23T03:43:52.690Z,12.14
2022-12-23T03:45:27.968Z,12.07
2022-12-23T03:45:52.667Z,12.08
2022-12-23T03:46:52.821Z,12.11
2022-12-23T03:47:52.583Z,12.08
2022-12-23T03:48:52.586Z,12.08
2022-12-23T03:49:52.557Z,12.05
2022-12-23T03:50:52.523Z,12.08
2022-12-23T03:51:52.493Z,12.05
2022-12-23T03:52:52.476Z,12.08
2022-12-23T03:53:52.447Z,12.08
2022-12-23T03:54:52.440Z,12.08
2022-12-23T03:55:52.408Z,12.14
2022-12-23T03:56:52.399Z,12.17
2022-12-23T03:57:52.361Z,12.17
2022-12-23T03:58:52.346Z,12.08
2022-12-23T03:59:52.322Z,12.08
2022-12-23T04:00:52.315Z,12.15
2022-12-23T04:01:52.391Z,12.13
2022-12-23T04:02:52.395Z,12.21
2022-12-23T04:03:52.365Z,12.05
2022-12-23T04:04:52.236Z,12.15
2022-12-23T04:05:52.230Z,12.13
2022-12-23T04:06:52.182Z,12.08
2022-12-23T04:07:52.182Z,12.15
2022-12-23T04:08:52.138Z,12.17
2022-12-23T04:09:52.122Z,12.15
2022-12-23T04:10:52.107Z,12.07
2022-12-23T04:11:52.083Z,12.10
2022-12-23T04:12:52.063Z,12.22
2022-12-23T04:13:52.034Z,12.15
2022-12-23T04:14:52.009Z,12.14
2022-12-23T04:15:52.024Z,12.13
2022-12-23T04:16:51.978Z,12.17
2022-12-23T04:17:51.955Z,12.18
2022-12-23T04:18:51.930Z,12.15
2022-12-23T04:19:51.911Z,12.17
2022-12-23T04:20:51.888Z,12.15
2022-12-23T04:21:51.898Z,12.15
2022-12-23T04:22:51.845Z,12.05
2022-12-23T04:23:51.831Z,12.17
2022-12-23T04:24:51.802Z,12.15
2022-12-23T04:25:51.786Z,12.14
2022-12-23T04:26:51.775Z,12.14
2022-12-23T04:27:51.753Z,12.17
2022-12-23T04:28:51.730Z,12.15
2022-12-23T04:29:51.707Z,12.18
2022-12-23T04:30:51.680Z,12.18
2022-12-23T04:31:51.794Z,12.21
2022-12-23T04:32:51.640Z,12.15
2022-12-23T04:33:51.621Z,12.15
2022-12-23T04:34:51.597Z,12.10
2022-12-23T04:35:51.580Z,12.15
2022-12-23T04:36:51.560Z,12.05
2022-12-23T04:37:51.644Z,12.18
2022-12-23T04:38:51.516Z,12.17
2022-12-23T04:39:51.493Z,12.22
2022-12-23T04:40:51.477Z,12.21
2022-12-23T04:41:51.458Z,12.08
2022-12-23T04:42:51.442Z,12.18
2022-12-23T04:43:53.313Z,12.08
2022-12-23T04:44:51.388Z,12.11
2022-12-23T04:45:51.373Z,12.10
2022-12-23T04:46:51.476Z,12.08
2022-12-23T04:47:51.338Z,12.10
2022-12-23T04:48:51.317Z,11.96
2022-12-23T04:49:51.293Z,12.04
2022-12-23T04:50:51.272Z,11.99
2022-12-23T04:51:51.266Z,12.07
2022-12-23T04:52:51.232Z,12.00
2022-12-23T04:53:51.245Z,11.97
2022-12-23T04:54:51.183Z,12.05
2022-12-23T04:55:51.273Z,12.00
2022-12-23T04:56:51.144Z,12.04
2022-12-23T04:57:51.130Z,12.08
2022-12-23T04:58:51.100Z,11.97
2022-12-23T04:59:51.098Z,12.04
2022-12-23T05:00:51.133Z,12.14
2022-12-23T05:01:51.279Z,12.08
2022-12-23T05:02:51.095Z,12.08
2022-12-23T05:03:50.997Z,12.08
2022-12-23T05:04:50.973Z,12.11
2022-12-23T05:05:50.961Z,12.10
2022-12-23T05:06:50.936Z,12.10
2022-12-23T05:07:50.923Z,11.99
2022-12-23T05:08:50.899Z,12.07
2022-12-23T05:09:50.922Z,12.13
2022-12-23T05:10:50.853Z,12.08
2022-12-23T05:11:50.835Z,12.08
2022-12-23T05:12:50.812Z,11.99
2022-12-23T05:13:50.808Z,11.97
2022-12-23T05:14:50.772Z,12.04
2022-12-23T05:15:50.810Z,12.11
2022-12-23T05:16:50.817Z,11.99
2022-12-23T05:17:50.720Z,12.08
2022-12-23T05:18:50.696Z,12.11
2022-12-23T05:19:50.689Z,12.08
2022-12-23T05:20:50.642Z,12.08
2022-12-23T05:21:50.630Z,12.00
2022-12-23T05:22:50.603Z,11.96
2022-12-23T05:23:50.588Z,12.05
2022-12-23T05:24:50.565Z,12.10
2022-12-23T05:25:50.567Z,12.11
2022-12-23T05:26:57.697Z,12.05
2022-12-23T05:27:50.507Z,12.11
2022-12-23T05:28:50.478Z,12.08
2022-12-23T05:29:50.465Z,12.00
2022-12-23T05:30:50.438Z,12.04
2022-12-23T05:31:50.502Z,12.00
2022-12-23T05:32:50.392Z,11.97
2022-12-23T05:33:50.477Z,11.97
2022-12-23T05:34:50.356Z,12.00
2022-12-23T05:35:50.334Z,11.97
2022-12-23T05:36:50.317Z,12.03
2022-12-23T05:37:50.320Z,12.05
2022-12-23T05:38:50.282Z,12.04
2022-12-23T05:39:50.256Z,12.05
2022-12-23T05:40:50.232Z,12.07
2022-12-23T05:41:50.236Z,12.03
2022-12-23T05:42:50.192Z,11.97
2022-12-23T05:43:50.172Z,12.05
2022-12-23T05:44:50.147Z,12.11
2022-12-23T05:45:50.229Z,12.03
2022-12-23T05:46:50.114Z,12.03
2022-12-23T05:47:50.118Z,12.05
2022-12-23T05:48:50.072Z,12.11
2022-12-23T05:49:50.050Z,12.07
2022-12-23T05:50:50.019Z,12.08
2022-12-23T05:51:50.012Z,12.03
2022-12-23T05:52:49.983Z,12.05
2022-12-23T05:53:49.990Z,12.10
2022-12-23T05:54:49.943Z,12.13
2022-12-23T05:55:49.947Z,12.07
2022-12-23T05:56:49.899Z,12.03
2022-12-23T05:57:49.920Z,12.05
2022-12-23T05:58:49.897Z,12.07
2022-12-23T05:59:49.838Z,11.97
2022-12-23T06:00:49.826Z,12.11
2022-12-23T06:01:49.908Z,12.05
2022-12-23T06:02:53.836Z,12.13
2022-12-23T06:03:49.894Z,12.04
2022-12-23T06:04:49.753Z,12.04
2022-12-23T06:05:49.712Z,12.05
2022-12-23T06:06:49.705Z,12.03
2022-12-23T06:07:49.693Z,11.99
2022-12-23T06:08:54.407Z,12.03
2022-12-23T06:09:49.627Z,11.96
2022-12-23T06:10:49.607Z,11.96
2022-12-23T06:11:49.588Z,11.99
2022-12-23T06:12:49.567Z,11.95
2022-12-23T06:13:49.604Z,11.95
2022-12-23T06:14:49.530Z,11.97
2022-12-23T06:15:49.541Z,11.99
2022-12-23T06:16:49.624Z,12.00
2022-12-23T06:17:49.469Z,12.05
2022-12-23T06:18:49.465Z,11.99
2022-12-23T06:19:49.422Z,12.04
2022-12-23T06:20:49.401Z,12.00
2022-12-23T06:21:49.381Z,11.96
2022-12-23T06:22:49.366Z,11.99
2022-12-23T06:23:49.339Z,11.97
2022-12-23T06:24:49.311Z,12.04
2022-12-23T06:25:49.301Z,12.03
2022-12-23T06:26:53.462Z,11.96
2022-12-23T06:27:49.259Z,11.97
2022-12-23T06:28:49.234Z,12.03
2022-12-23T06:29:49.358Z,12.00
2022-12-23T06:30:49.202Z,11.99
2022-12-23T06:31:49.204Z,12.00
2022-12-23T06:32:49.155Z,11.97
2022-12-23T06:33:49.152Z,11.96
2022-12-23T06:34:49.125Z,11.88
2022-12-23T06:35:49.084Z,11.82
2022-12-23T06:36:49.068Z,11.80
2022-12-23T06:37:49.060Z,11.97
2022-12-23T06:38:49.028Z,11.91
2022-12-23T06:39:49.021Z,11.97
2022-12-23T06:40:48.982Z,11.97
2022-12-23T06:41:48.978Z,11.93
2022-12-23T06:42:48.968Z,11.93
2022-12-23T06:43:54.052Z,11.97
2022-12-23T06:44:48.907Z,12.00
2022-12-23T06:45:48.956Z,11.95
2022-12-23T06:46:48.864Z,11.96
2022-12-23T06:47:48.838Z,11.99
2022-12-23T06:48:48.816Z,11.99
2022-12-23T06:49:48.800Z,11.97
2022-12-23T06:50:48.777Z,11.99
2022-12-23T06:51:48.754Z,11.99
2022-12-23T06:52:48.734Z,12.00
2022-12-23T06:53:48.716Z,11.97
2022-12-23T06:54:48.697Z,11.91
2022-12-23T06:55:48.670Z,11.96
2022-12-23T06:56:48.651Z,11.95
2022-12-23T06:57:48.630Z,11.89
2022-12-23T06:58:48.623Z,11.97
2022-12-23T06:59:48.587Z,11.95
2022-12-23T07:00:48.638Z,11.97
2022-12-23T07:01:48.646Z,12.00
2022-12-23T07:02:48.589Z,11.97
2022-12-23T07:03:48.510Z,11.91
2022-12-23T07:04:48.485Z,12.05
2022-12-23T07:05:48.472Z,11.99
2022-12-23T07:06:48.451Z,12.03
2022-12-23T07:07:48.424Z,12.04
2022-12-23T07:08:48.421Z,12.03
2022-12-23T07:09:48.383Z,11.95
2022-12-23T07:10:48.365Z,12.03
2022-12-23T07:11:48.347Z,11.97
2022-12-23T07:12:50.858Z,12.00
2022-12-23T07:13:48.307Z,12.05
2022-12-23T07:14:48.272Z,12.03
2022-12-23T07:15:48.274Z,12.05
2022-12-23T07:16:48.410Z,11.93
2022-12-23T07:17:48.247Z,12.03
2022-12-23T07:18:48.197Z,11.99
2022-12-23T07:19:48.176Z,12.03
2022-12-23T07:20:48.149Z,12.03
2022-12-23T07:21:48.143Z,11.99
2022-12-23T07:22:48.119Z,12.03
2022-12-23T07:23:48.095Z,11.97
2022-12-23T07:24:48.067Z,11.96
2022-12-23T07:25:48.057Z,12.00
2022-12-23T07:26:48.040Z,12.00
2022-12-23T07:27:48.009Z,11.99
2022-12-23T07:28:47.987Z,12.00
2022-12-23T07:29:47.966Z,12.03
2022-12-23T07:30:47.945Z,11.97
2022-12-23T07:31:47.986Z,11.99
2022-12-23T07:32:47.900Z,11.97
2022-12-23T07:33:47.906Z,11.97
2022-12-23T07:34:47.873Z,12.04
2022-12-23T07:35:47.852Z,11.96
2022-12-23T07:36:47.836Z,12.00
2022-12-23T07:37:47.809Z,11.97
2022-12-23T07:38:47.775Z,11.91
2022-12-23T07:39:47.764Z,11.97
2022-12-23T07:40:47.745Z,11.85
2022-12-23T07:41:47.713Z,11.88
2022-12-23T07:42:47.690Z,11.91
2022-12-23T07:43:47.678Z,11.88
2022-12-23T07:44:47.651Z,11.91
2022-12-23T07:45:50.159Z,11.89
2022-12-23T07:46:47.651Z,11.97
2022-12-23T07:47:47.591Z,11.91
2022-12-23T07:48:47.617Z,11.93
2022-12-23T07:49:47.567Z,11.89
2022-12-23T07:50:47.528Z,11.84
2022-12-23T07:51:47.506Z,11.85
2022-12-23T07:52:47.487Z,12.00
2022-12-23T07:53:47.467Z,11.88
2022-12-23T07:54:47.452Z,11.96
2022-12-23T07:55:52.972Z,11.97
2022-12-23T07:56:47.399Z,11.89
2022-12-23T07:57:47.386Z,11.95
2022-12-23T07:58:47.364Z,11.87
2022-12-23T07:59:47.363Z,11.95
2022-12-23T08:00:47.317Z,11.85
2022-12-23T08:01:47.497Z,11.89
2022-12-23T08:02:47.372Z,11.89
2022-12-23T08:03:47.317Z,11.93
2022-12-23T08:04:47.281Z,11.93
2022-12-23T08:05:47.300Z,11.96
2022-12-23T08:06:47.196Z,11.96
2022-12-23T08:07:47.178Z,11.85
2022-12-23T08:08:47.162Z,11.89
2022-12-23T08:09:47.162Z,11.95
2022-12-23T08:10:48.485Z,11.84
2022-12-23T08:11:47.095Z,11.88
2022-12-23T08:12:47.116Z,11.88
2022-12-23T08:13:47.055Z,11.89
2022-12-23T08:14:47.041Z,11.84
2022-12-23T08:15:47.007Z,11.84
2022-12-23T08:16:47.042Z,11.87
2022-12-23T08:17:46.977Z,11.77
2022-12-23T08:18:46.946Z,11.91
2022-12-23T08:19:46.926Z,11.91
2022-12-23T08:20:46.908Z,11.85
2022-12-23T08:21:47.003Z,11.89
2022-12-23T08:22:46.871Z,11.93
2022-12-23T08:23:46.853Z,11.84
2022-12-23T08:24:46.840Z,11.99
2022-12-23T08:25:46.805Z,11.88
2022-12-23T08:26:46.784Z,11.85
2022-12-23T08:27:46.752Z,11.87
2022-12-23T08:28:46.739Z,11.69
2022-12-23T08:29:46.717Z,11.89
2022-12-23T08:30:46.757Z,11.89
2022-12-23T08:31:46.675Z,11.85
2022-12-23T08:32:46.655Z,11.85
2022-12-23T08:33:46.639Z,11.88
2022-12-23T08:34:46.618Z,11.76
2022-12-23T08:35:46.588Z,11.87
2022-12-23T08:36:46.583Z,11.89
2022-12-23T08:37:46.587Z,11.87
2022-12-23T08:38:46.546Z,11.87
2022-12-23T08:39:46.511Z,11.88
2022-12-23T08:40:46.498Z,11.80
2022-12-23T08:41:46.478Z,11.89
2022-12-23T08:42:46.447Z,11.89
2022-12-23T08:43:46.420Z,11.85
2022-12-23T08:44:46.405Z,11.76
2022-12-23T08:45:46.472Z,11.88
2022-12-23T08:46:46.485Z,11.88
2022-12-23T08:47:46.338Z,11.93
2022-12-23T08:48:49.473Z,11.88
2022-12-23T08:49:46.322Z,11.89
2022-12-23T08:50:46.283Z,11.82
2022-12-23T08:51:46.255Z,11.93
2022-12-23T08:52:46.259Z,11.87
2022-12-23T08:53:46.245Z,11.96
2022-12-23T08:54:46.204Z,11.99
2022-12-23T08:55:46.212Z,12.00
2022-12-23T08:56:46.157Z,11.96
2022-12-23T08:57:46.134Z,11.95
2022-12-23T08:58:46.111Z,11.97
2022-12-23T08:59:46.089Z,11.95
2022-12-23T09:00:46.077Z,11.93
2022-12-23T09:01:46.171Z,11.95
2022-12-23T09:02:46.209Z,11.93
2022-12-23T09:03:46.034Z,12.00
2022-12-23T09:04:45.992Z,11.95
2022-12-23T09:05:45.963Z,11.87
2022-12-23T09:06:45.957Z,11.85
2022-12-23T09:07:45.923Z,11.88
2022-12-23T09:08:45.911Z,11.76
2022-12-23T09:09:45.910Z,11.85
2022-12-23T09:10:45.863Z,11.91
2022-12-23T09:11:45.842Z,11.88
2022-12-23T09:12:45.829Z,11.91
2022-12-23T09:13:45.801Z,11.97
2022-12-23T09:14:45.787Z,11.97
2022-12-23T09:15:45.815Z,11.97
2022-12-23T09:16:45.744Z,12.00
2022-12-23T09:17:45.713Z,11.95
2022-12-23T09:18:45.700Z,11.97
2022-12-23T09:19:52.255Z,11.95
2022-12-23T09:20:45.656Z,12.00
2022-12-23T09:21:45.668Z,12.04
2022-12-23T09:22:45.620Z,12.08
2022-12-23T09:23:45.603Z,12.14
2022-12-23T09:24:45.574Z,12.08
2022-12-23T09:25:45.583Z,12.11
2022-12-23T09:26:45.537Z,12.07
2022-12-23T09:27:45.508Z,12.04
2022-12-23T09:28:45.493Z,12.03
2022-12-23T09:29:45.468Z,12.11
2022-12-23T09:30:45.518Z,12.10
2022-12-23T09:31:45.511Z,12.18
2022-12-23T09:32:45.407Z,12.08
2022-12-23T09:33:45.392Z,12.17
2022-12-23T09:34:45.377Z,12.04
2022-12-23T09:35:45.349Z,12.17
2022-12-23T09:36:48.037Z,12.18
2022-12-23T09:37:45.309Z,12.13
2022-12-23T09:38:45.377Z,12.15
2022-12-23T09:39:45.351Z,12.22
2022-12-23T09:40:45.244Z,12.23
2022-12-23T09:41:45.242Z,12.18
2022-12-23T09:42:45.203Z,12.26
2022-12-23T09:43:45.181Z,12.22
2022-12-23T09:44:45.165Z,12.21
2022-12-23T09:45:45.142Z,12.33
2022-12-23T09:46:45.191Z,12.23
2022-12-23T09:47:45.107Z,12.28
2022-12-23T09:48:45.079Z,12.21
2022-12-23T09:49:45.063Z,12.25
2022-12-23T09:50:45.040Z,12.25
2022-12-23T09:51:45.019Z,12.26
2022-12-23T09:52:44.998Z,12.26
2022-12-23T09:53:44.981Z,12.23
2022-12-23T09:54:44.962Z,12.28
2022-12-23T09:55:44.934Z,12.23
2022-12-23T09:56:44.911Z,12.22
2022-12-23T09:57:44.937Z,12.26
2022-12-23T09:58:44.878Z,12.30
2022-12-23T09:59:44.858Z,12.36
2022-12-23T10:00:44.835Z,12.30
2022-12-23T10:01:45.325Z,12.26
2022-12-23T10:02:44.934Z,12.21
2022-12-23T10:03:44.995Z,12.26
2022-12-23T10:04:44.751Z,12.21
2022-12-23T10:05:44.740Z,12.28
2022-12-23T10:06:44.736Z,12.25
2022-12-23T10:07:44.689Z,12.26
2022-12-23T10:08:44.687Z,12.30
2022-12-23T10:09:44.652Z,12.17
2022-12-23T10:10:44.628Z,12.15
2022-12-23T10:11:44.606Z,12.18
2022-12-23T10:12:44.587Z,12.22
2022-12-23T10:13:44.612Z,12.26
2022-12-23T10:14:44.549Z,12.30
2022-12-23T10:15:44.610Z,12.28
2022-12-23T10:16:44.562Z,12.28
2022-12-23T10:17:44.496Z,12.23
2022-12-23T10:18:44.475Z,12.23
2022-12-23T10:19:44.448Z,12.29
2022-12-23T10:20:44.439Z,12.17
2022-12-23T10:21:47.553Z,12.07
2022-12-23T10:22:44.386Z,12.08
2022-12-23T10:23:44.370Z,12.08
2022-12-23T10:24:44.347Z,12.15
2022-12-23T10:25:44.327Z,12.11
2022-12-23T10:26:44.315Z,12.11
2022-12-23T10:27:44.287Z,12.18
2022-12-23T10:28:44.275Z,12.14
2022-12-23T10:29:44.254Z,12.15
2022-12-23T10:31:10.932Z,12.17
2022-12-23T10:31:44.312Z,12.21
2022-12-23T10:32:44.311Z,12.26
2022-12-23T10:33:44.162Z,12.26
2022-12-23T10:34:44.247Z,12.25
2022-12-23T10:35:44.157Z,12.23
2022-12-23T10:36:44.246Z,12.28
2022-12-23T10:37:44.078Z,12.35
2022-12-23T10:38:44.066Z,12.29
2022-12-23T10:39:44.047Z,12.35
2022-12-23T10:40:44.019Z,12.33
2022-12-23T10:41:44.001Z,12.33
2022-12-23T10:42:43.975Z,12.30
2022-12-23T10:43:43.963Z,12.25
2022-12-23T10:44:43.942Z,12.25
2022-12-23T10:45:43.949Z,12.17
2022-12-23T10:46:43.934Z,12.17
2022-12-23T10:47:43.871Z,12.05
2022-12-23T10:48:43.857Z,12.15
2022-12-23T10:49:43.835Z,12.03
2022-12-23T10:50:43.809Z,12.07
2022-12-23T10:51:43.784Z,12.03
2022-12-23T10:52:43.775Z,12.03
2022-12-23T10:53:43.744Z,12.00
2022-12-23T10:54:43.732Z,11.99
2022-12-23T10:55:43.705Z,11.99
2022-12-23T10:56:43.690Z,12.03
2022-12-23T10:57:43.668Z,12.03
2022-12-23T10:58:43.647Z,12.03
2022-12-23T10:59:43.625Z,12.00
2022-12-23T11:00:43.700Z,12.00
2022-12-23T11:01:43.781Z,11.99
2022-12-23T11:02:43.678Z,12.00
2022-12-23T11:03:43.569Z,12.03
2022-12-23T11:04:43.529Z,12.00
2022-12-23T11:05:43.500Z,11.95
2022-12-23T11:06:43.485Z,12.03
2022-12-23T11:07:45.380Z,12.14
2022-12-23T11:08:43.435Z,12.15
2022-12-23T11:09:43.420Z,12.15
2022-12-23T11:10:43.397Z,12.07
2022-12-23T11:11:43.380Z,12.03
2022-12-23T11:12:43.364Z,11.97
2022-12-23T11:13:43.363Z,11.91
2022-12-23T11:14:43.329Z,12.04
2022-12-23T11:15:43.290Z,11.97
2022-12-23T11:16:43.390Z,12.03
2022-12-23T11:17:43.268Z,12.03
2022-12-23T11:18:43.238Z,12.07
2022-12-23T11:19:43.207Z,12.04
2022-12-23T11:20:43.246Z,12.04
2022-12-23T11:21:43.169Z,12.05
2022-12-23T11:22:43.151Z,12.04
2022-12-23T11:23:43.130Z,11.97
2022-12-23T11:24:43.559Z,11.95
2022-12-23T11:25:43.104Z,11.84
2022-12-23T11:26:43.070Z,11.84
2022-12-23T11:27:43.047Z,11.87
2022-12-23T11:28:43.025Z,11.89
2022-12-23T11:29:43.042Z,11.93
2022-12-23T11:30:42.990Z,12.04
2022-12-23T11:31:42.986Z,12.03
2022-12-23T11:32:42.951Z,11.99
2022-12-23T11:33:42.957Z,12.00
2022-12-23T11:34:42.904Z,11.82
2022-12-23T11:35:42.952Z,11.89
2022-12-23T11:36:42.862Z,11.87
2022-12-23T11:37:42.842Z,11.77
2022-12-23T11:38:42.813Z,11.73
2022-12-23T11:39:42.804Z,11.74
2022-12-23T11:40:42.777Z,11.73
2022-12-23T11:41:42.755Z,11.69
2022-12-23T11:42:42.741Z,11.62
2022-12-23T11:43:42.719Z,11.62
2022-12-23T11:44:42.707Z,11.64
2022-12-23T11:45:42.698Z,11.64
2022-12-23T11:46:42.654Z,11.69
2022-12-23T11:47:42.632Z,11.69
2022-12-23T11:48:42.615Z,11.74
2022-12-23T11:49:42.611Z,11.73
2022-12-23T11:50:42.580Z,11.74
2022-12-23T11:51:42.555Z,11.59
2022-12-23T11:52:42.526Z,11.62
2022-12-23T11:53:42.504Z,11.62
2022-12-23T11:54:42.487Z,11.58
2022-12-23T11:55:42.464Z,11.62
2022-12-23T11:56:42.516Z,11.64
2022-12-23T11:57:42.439Z,11.61
2022-12-23T11:58:42.406Z,11.66
2022-12-23T11:59:42.383Z,11.62
2022-12-23T12:00:42.358Z,11.54
2022-12-23T12:01:42.341Z,11.49
2022-12-23T12:02:42.452Z,11.54
2022-12-23T12:03:42.341Z,11.46
2022-12-23T12:04:42.290Z,11.34
2022-12-23T12:05:42.307Z,11.48
2022-12-23T12:06:42.245Z,11.38
2022-12-23T12:07:42.213Z,11.49
2022-12-23T12:08:42.194Z,11.52
2022-12-23T12:09:42.170Z,11.46
2022-12-23T12:10:42.163Z,11.45
2022-12-23T12:11:42.125Z,11.51
2022-12-23T12:12:42.110Z,11.48
2022-12-23T12:13:42.085Z,11.49
2022-12-23T12:14:42.075Z,11.51
2022-12-23T12:15:42.054Z,11.51
2022-12-23T12:16:42.098Z,11.45
2022-12-23T12:17:42.011Z,11.48
2022-12-23T12:18:42.003Z,11.46
2022-12-23T12:19:41.988Z,11.49
2022-12-23T12:20:41.948Z,11.45
2022-12-23T12:21:41.940Z,11.51
2022-12-23T12:22:41.907Z,11.51
2022-12-23T12:23:41.885Z,11.48
2022-12-23T12:24:41.854Z,11.38
2022-12-23T12:25:41.833Z,11.46
2022-12-23T12:26:41.821Z,11.48
2022-12-23T12:27:41.790Z,11.45
2022-12-23T12:28:41.770Z,11.54
2022-12-23T12:29:41.754Z,11.52
2022-12-23T12:30:41.842Z,11.52
2022-12-23T12:31:41.711Z,11.55
2022-12-23T12:32:41.685Z,11.61
2022-12-23T12:33:41.665Z,11.54
2022-12-23T12:34:41.645Z,11.52
2022-12-23T12:35:41.628Z,11.54
2022-12-23T12:36:41.669Z,11.61
2022-12-23T12:37:41.669Z,11.55
2022-12-23T12:38:41.575Z,11.56
2022-12-23T12:39:41.541Z,11.64
2022-12-23T12:40:41.523Z,11.56
2022-12-23T12:41:41.498Z,11.55
2022-12-23T12:42:41.477Z,11.59
2022-12-23T12:43:41.467Z,11.58
2022-12-23T12:44:41.458Z,11.52
2022-12-23T12:45:41.538Z,11.54
2022-12-23T12:46:41.398Z,11.49
2022-12-23T12:48:02.089Z,11.55
2022-12-23T12:48:41.366Z,11.45
2022-12-23T12:49:41.362Z,11.46
2022-12-23T12:50:41.304Z,11.55
2022-12-23T12:51:41.335Z,11.43
2022-12-23T12:52:41.262Z,11.49